sensor_id;sensor_type;location;lat;lon;timestamp;pressure;altitude;pressure_sealevel;temperature;humidity
13420;BME280;6781;58.440;15.470;2023-01-31T00:02:14;99286.25;;;1.11;100.00
13420;BME280;6781;58.440;15.470;2023-01-31T00:04:41;99276.28;;;1.20;100.00
13420;BME280;6781;58.440;15.470;2023-01-31T00:07:08;99265.25;;;1.20;100.00
13420;BME280;6781;58.440;15.470;2023-01-31T00:09:35;99269.72;;;1.16;100.00
13420;BME280;6781;58.440;15.470;2023-01-31T00:12:02;99269.53;;;1.19;100.00
13420;BME280;6781;58.440;15.470;2023-01-31T00:14:28;99273.53;;;1.23;100.00
13420;BME280;6781;58.440;15.470;2023-01-31T00:16:58;99276.28;;;1.20;100.00
13420;BME280;6781;58.440;15.470;2023-01-31T00:19:26;99285.69;;;1.20;100.00
13420;BME280;6781;58.440;15.470;2023-01-31T00:21:53;99295.97;;;1.18;100.00
13420;BME280;6781;58.440;15.470;2023-01-31T00:24:20;99296.91;;;1.17;100.00
13420;BME280;6781;58.440;15.470;2023-01-31T00:26:47;99300.72;;;1.10;100.00
13420;BME280;6781;58.440;15.470;2023-01-31T00:29:20;99308.59;;;1.07;100.00
13420;BME280;6781;58.440;15.470;2023-01-31T00:31:47;99300.91;;;1.07;100.00
13420;BME280;6781;58.440;15.470;2023-01-31T00:34:14;99321.53;;;1.04;100.00
13420;BME280;6781;58.440;15.470;2023-01-31T00:36:43;99330.47;;;0.97;100.00
13420;BME280;6781;58.440;15.470;2023-01-31T00:39:09;99327.00;;;0.98;100.00
13420;BME280;6781;58.440;15.470;2023-01-31T00:41:36;99324.25;;;1.01;100.00
13420;BME280;6781;58.440;15.470;2023-01-31T00:44:04;99310.38;;;1.19;100.00
13420;BME280;6781;58.440;15.470;2023-01-31T00:46:31;99313.59;;;1.09;100.00
13420;BME280;6781;58.440;15.470;2023-01-31T00:48:58;99315.69;;;1.02;100.00
13420;BME280;6781;58.440;15.470;2023-01-31T00:51:26;99317.78;;;0.95;100.00
13420;BME280;6781;58.440;15.470;2023-01-31T00:53:54;99334.09;;;0.93;100.00
13420;BME280;6781;58.440;15.470;2023-01-31T00:56:24;99335.38;;;1.00;100.00
13420;BME280;6781;58.440;15.470;2023-01-31T00:58:51;99337.38;;;0.95;100.00
13420;BME280;6781;58.440;15.470;2023-01-31T01:01:19;99349.78;;;0.87;100.00
13420;BME280;6781;58.440;15.470;2023-01-31T01:03:46;99348.50;;;0.80;100.00
13420;BME280;6781;58.440;15.470;2023-01-31T01:06:14;99358.72;;;0.80;100.00
13420;BME280;6781;58.440;15.470;2023-01-31T01:08:41;99357.25;;;0.76;100.00
13420;BME280;6781;58.440;15.470;2023-01-31T01:11:11;99370.81;;;0.76;100.00
13420;BME280;6781;58.440;15.470;2023-01-31T01:13:38;99363.81;;;0.80;100.00
13420;BME280;6781;58.440;15.470;2023-01-31T01:16:06;99363.00;;;0.79;100.00
13420;BME280;6781;58.440;15.470;2023-01-31T01:18:33;99367.44;;;0.76;100.00
13420;BME280;6781;58.440;15.470;2023-01-31T01:21:04;99363.16;;;0.76;100.00
13420;BME280;6781;58.440;15.470;2023-01-31T01:23:30;99362.88;;;0.67;100.00
13420;BME280;6781;58.440;15.470;2023-01-31T01:25:57;99355.78;;;0.72;100.00
13420;BME280;6781;58.440;15.470;2023-01-31T01:28:25;99361.81;;;0.71;100.00
13420;BME280;6781;58.440;15.470;2023-01-31T01:30:52;99360.97;;;0.70;100.00
13420;BME280;6781;58.440;15.470;2023-01-31T01:33:19;99364.91;;;0.76;100.00
13420;BME280;6781;58.440;15.470;2023-01-31T01:35:46;99372.81;;;0.71;100.00
13420;BME280;6781;58.440;15.470;2023-01-31T01:38:13;99380.38;;;0.73;100.00
13420;BME280;6781;58.440;15.470;2023-01-31T01:40:40;99394.59;;;0.62;100.00
13420;BME280;6781;58.440;15.470;2023-01-31T01:43:08;99386.75;;;0.65;100.00
13420;BME280;6781;58.440;15.470;2023-01-31T01:45:37;99389.84;;;0.71;100.00
13420;BME280;6781;58.440;15.470;2023-01-31T01:48:05;99389.84;;;0.56;100.00
13420;BME280;6781;58.440;15.470;2023-01-31T01:50:34;99400.75;;;0.58;100.00
13420;BME280;6781;58.440;15.470;2023-01-31T01:53:03;99397.66;;;0.53;100.00
13420;BME280;6781;58.440;15.470;2023-01-31T01:55:32;99402.41;;;0.59;100.00
13420;BME280;6781;58.440;15.470;2023-01-31T01:58:01;99405.56;;;0.49;100.00
13420;BME280;6781;58.440;15.470;2023-01-31T02:00:29;99422.84;;;0.44;100.00
13420;BME280;6781;58.440;15.470;2023-01-31T02:02:58;99428.78;;;0.44;100.00
13420;BME280;6781;58.440;15.470;2023-01-31T02:05:27;99438.97;;;0.44;100.00
13420;BME280;6781;58.440;15.470;2023-01-31T02:07:55;99442.84;;;0.36;100.00
13420;BME280;6781;58.440;15.470;2023-01-31T02:10:23;99449.50;;;0.38;100.00
13420;BME280;6781;58.440;15.470;2023-01-31T02:12:52;99446.06;;;0.39;100.00
13420;BME280;6781;58.440;15.470;2023-01-31T02:15:19;99457.34;;;0.35;100.00
13420;BME280;6781;58.440;15.470;2023-01-31T02:17:46;99454.44;;;0.41;100.00
13420;BME280;6781;58.440;15.470;2023-01-31T02:23:11;99458.41;;;0.31;100.00
13420;BME280;6781;58.440;15.470;2023-01-31T02:25:52;99466.63;;;0.36;100.00
13420;BME280;6781;58.440;15.470;2023-01-31T02:28:30;99476.34;;;0.29;100.00
13420;BME280;6781;58.440;15.470;2023-01-31T02:33:58;99470.25;;;0.32;100.00
13420;BME280;6781;58.440;15.470;2023-01-31T02:36:31;99472.22;;;0.43;100.00
13420;BME280;6781;58.440;15.470;2023-01-31T02:39:06;99485.03;;;0.41;100.00
13420;BME280;6781;58.440;15.470;2023-01-31T02:41:38;99483.56;;;0.37;100.00
13420;BME280;6781;58.440;15.470;2023-01-31T02:44:09;99493.94;;;0.34;100.00
13420;BME280;6781;58.440;15.470;2023-01-31T02:46:57;99487.03;;;0.36;100.00
13420;BME280;6781;58.440;15.470;2023-01-31T02:49:28;99493.75;;;0.37;100.00
13420;BME280;6781;58.440;15.470;2023-01-31T02:52:06;99482.16;;;0.31;100.00
13420;BME280;6781;58.440;15.470;2023-01-31T02:54:42;99478.81;;;0.31;100.00
13420;BME280;6781;58.440;15.470;2023-01-31T02:57:28;99483.50;;;0.23;100.00
13420;BME280;6781;58.440;15.470;2023-01-31T02:59:56;99496.25;;;0.23;100.00
13420;BME280;6781;58.440;15.470;2023-01-31T03:02:23;99509.16;;;0.20;100.00
13420;BME280;6781;58.440;15.470;2023-01-31T03:07:28;99497.97;;;0.22;100.00
13420;BME280;6781;58.440;15.470;2023-01-31T03:09:59;99502.00;;;0.26;100.00
13420;BME280;6781;58.440;15.470;2023-01-31T03:12:31;99496.25;;;0.23;100.00
13420;BME280;6781;58.440;15.470;2023-01-31T03:15:18;99501.50;;;0.20;100.00
13420;BME280;6781;58.440;15.470;2023-01-31T03:17:48;99496.91;;;0.26;100.00
13420;BME280;6781;58.440;15.470;2023-01-31T03:20:20;99505.13;;;0.16;100.00
13420;BME280;6781;58.440;15.470;2023-01-31T03:22:50;99509.16;;;0.20;100.00
13420;BME280;6781;58.440;15.470;2023-01-31T03:25:24;99524.53;;;0.18;100.00
13420;BME280;6781;58.440;15.470;2023-01-31T03:27:53;99517.53;;;0.22;100.00
13420;BME280;6781;58.440;15.470;2023-01-31T03:30:22;99516.63;;;0.23;100.00
13420;BME280;6781;58.440;15.470;2023-01-31T03:32:54;99533.91;;;0.18;100.00
13420;BME280;6781;58.440;15.470;2023-01-31T03:35:22;99530.28;;;0.22;100.00
13420;BME280;6781;58.440;15.470;2023-01-31T03:37:54;99513.50;;;0.18;100.00
13420;BME280;6781;58.440;15.470;2023-01-31T03:40:25;99522.22;;;0.14;100.00
13420;BME280;6781;58.440;15.470;2023-01-31T03:42:53;99524.03;;;0.12;100.00
13420;BME280;6781;58.440;15.470;2023-01-31T03:45:26;99529.13;;;0.12;100.00
13420;BME280;6781;58.440;15.470;2023-01-31T03:47:56;99519.09;;;0.09;100.00
13420;BME280;6781;58.440;15.470;2023-01-31T03:50:30;99527.47;;;0.11;100.00
13420;BME280;6781;58.440;15.470;2023-01-31T03:53:07;99517.13;;;0.14;100.00
13420;BME280;6781;58.440;15.470;2023-01-31T03:55:36;99515.31;;;0.16;100.00
13420;BME280;6781;58.440;15.470;2023-01-31T03:58:12;99516.78;;;0.20;100.00
13420;BME280;6781;58.440;15.470;2023-01-31T04:00:44;99518.84;;;0.29;100.00
13420;BME280;6781;58.440;15.470;2023-01-31T04:03:17;99529.63;;;0.18;100.00
13420;BME280;6781;58.440;15.470;2023-01-31T04:05:46;99534.63;;;0.20;100.00
13420;BME280;6781;58.440;15.470;2023-01-31T04:08:15;99524.69;;;0.15;100.00
13420;BME280;6781;58.440;15.470;2023-01-31T04:10:42;99532.41;;;0.14;100.00
13420;BME280;6781;58.440;15.470;2023-01-31T04:13:09;99538.34;;;0.14;100.00
13420;BME280;6781;58.440;15.470;2023-01-31T04:15:36;99530.13;;;0.09;100.00
13420;BME280;6781;58.440;15.470;2023-01-31T04:18:03;99527.66;;;0.08;100.00
13420;BME280;6781;58.440;15.470;2023-01-31T04:20:30;99534.16;;;-0.03;100.00
13420;BME280;6781;58.440;15.470;2023-01-31T04:22:57;99532.69;;;-0.07;100.00
13420;BME280;6781;58.440;15.470;2023-01-31T04:25:29;99533.75;;;-0.11;100.00
13420;BME280;6781;58.440;15.470;2023-01-31T04:27:55;99528.97;;;-0.17;100.00
13420;BME280;6781;58.440;15.470;2023-01-31T04:30:25;99539.00;;;-0.14;100.00
13420;BME280;6781;58.440;15.470;2023-01-31T04:32:53;99536.03;;;-0.22;100.00
13420;BME280;6781;58.440;15.470;2023-01-31T04:35:20;99553.78;;;-0.20;100.00
13420;BME280;6781;58.440;15.470;2023-01-31T04:37:48;99556.25;;;-0.19;100.00
13420;BME280;6781;58.440;15.470;2023-01-31T04:40:15;99551.91;;;-0.17;100.00
13420;BME280;6781;58.440;15.470;2023-01-31T04:42:44;99543.34;;;-0.16;100.00
13420;BME280;6781;58.440;15.470;2023-01-31T04:45:14;99536.69;;;-0.18;100.00
13420;BME280;6781;58.440;15.470;2023-01-31T04:47:43;99545.38;;;-0.22;100.00
13420;BME280;6781;58.440;15.470;2023-01-31T04:50:15;99541.13;;;-0.22;100.00
13420;BME280;6781;58.440;15.470;2023-01-31T04:52:52;99538.41;;;-0.19;100.00
13420;BME280;6781;58.440;15.470;2023-01-31T04:55:23;99547.53;;;-0.15;100.00
13420;BME280;6781;58.440;15.470;2023-01-31T04:57:52;99532.09;;;-0.12;100.00
13420;BME280;6781;58.440;15.470;2023-01-31T05:00:19;99529.47;;;-0.10;100.00
13420;BME280;6781;58.440;15.470;2023-01-31T05:02:51;99538.84;;;-0.11;100.00
13420;BME280;6781;58.440;15.470;2023-01-31T05:05:26;99534.56;;;-0.10;100.00
13420;BME280;6781;58.440;15.470;2023-01-31T05:07:53;99528.31;;;-0.05;100.00
13420;BME280;6781;58.440;15.470;2023-01-31T05:13:25;99514.19;;;-0.10;100.00
13420;BME280;6781;58.440;15.470;2023-01-31T05:16:06;99529.63;;;-0.13;100.00
13420;BME280;6781;58.440;15.470;2023-01-31T05:18:50;99539.91;;;-0.15;100.00
13420;BME280;6781;58.440;15.470;2023-01-31T05:27:33;99538.56;;;-0.22;100.00
13420;BME280;6781;58.440;15.470;2023-01-31T05:39:08;99574.41;;;-0.42;100.00
13420;BME280;6781;58.440;15.470;2023-01-31T05:42:05;99581.63;;;-0.50;100.00
13420;BME280;6781;58.440;15.470;2023-01-31T05:47:54;99603.19;;;-0.57;100.00
13420;BME280;6781;58.440;15.470;2023-01-31T06:25:26;99615.09;;;-0.58;100.00
13420;BME280;6781;58.440;15.470;2023-01-31T06:28:21;99618.31;;;-0.54;100.00
13420;BME280;6781;58.440;15.470;2023-01-31T11:10:56;99328.81;;;1.78;100.00
13420;BME280;6781;58.440;15.470;2023-01-31T17:14:31;99037.78;;;0.45;100.00
13420;BME280;6781;58.440;15.470;2023-01-31T17:17:08;99026.13;;;0.41;100.00
13420;BME280;6781;58.440;15.470;2023-01-31T17:19:35;99014.50;;;0.37;100.00
13420;BME280;6781;58.440;15.470;2023-01-31T17:24:58;99009.59;;;0.34;100.00
13420;BME280;6781;58.440;15.470;2023-01-31T17:27:32;98999.16;;;0.24;100.00
13420;BME280;6781;58.440;15.470;2023-01-31T17:30:15;99005.06;;;0.25;100.00
13420;BME280;6781;58.440;15.470;2023-01-31T17:32:48;98996.50;;;0.26;100.00
13420;BME280;6781;58.440;15.470;2023-01-31T17:35:40;99002.22;;;0.29;100.00
13420;BME280;6781;58.440;15.470;2023-01-31T17:38:07;99003.25;;;0.27;100.00
13420;BME280;6781;58.440;15.470;2023-01-31T17:40:39;99000.78;;;0.25;100.00
13420;BME280;6781;58.440;15.470;2023-01-31T17:43:17;99010.25;;;0.23;100.00
13420;BME280;6781;58.440;15.470;2023-01-31T17:45:51;99010.16;;;0.25;100.00
13420;BME280;6781;58.440;15.470;2023-01-31T17:48:19;99005.06;;;0.25;100.00
13420;BME280;6781;58.440;15.470;2023-01-31T17:51:06;99006.88;;;0.23;100.00
13420;BME280;6781;58.440;15.470;2023-01-31T17:54:10;99013.09;;;0.19;100.00
13420;BME280;6781;58.440;15.470;2023-01-31T17:56:41;99019.28;;;0.15;100.00
13420;BME280;6781;58.440;15.470;2023-01-31T18:14:40;99045.66;;;0.28;100.00
13420;BME280;6781;58.440;15.470;2023-01-31T18:17:19;99052.00;;;0.35;100.00
13420;BME280;6781;58.440;15.470;2023-01-31T18:20:02;99060.91;;;0.42;100.00
13420;BME280;6781;58.440;15.470;2023-01-31T18:25:35;99054.31;;;0.52;100.00
13420;BME280;6781;58.440;15.470;2023-01-31T18:28:20;99049.75;;;0.57;100.00
13420;BME280;6781;58.440;15.470;2023-01-31T18:30:51;99043.75;;;0.58;100.00
13420;BME280;6781;58.440;15.470;2023-01-31T18:33:21;99051.38;;;0.58;100.00
13420;BME280;6781;58.440;15.470;2023-01-31T18:36:01;99057.22;;;0.60;100.00
13420;BME280;6781;58.440;15.470;2023-01-31T19:18:33;99081.69;;;0.90;100.00
13420;BME280;6781;58.440;15.470;2023-01-31T19:21:06;99077.41;;;0.90;100.00
13420;BME280;6781;58.440;15.470;2023-01-31T19:24:02;99080.38;;;0.97;100.00
13420;BME280;6781;58.440;15.470;2023-01-31T19:29:40;99087.84;;;1.00;100.00
13420;BME280;6781;58.440;15.470;2023-01-31T19:32:24;99100.41;;;1.03;100.00
13420;BME280;6781;58.440;15.470;2023-01-31T19:35:04;99111.03;;;1.10;100.00
13420;BME280;6781;58.440;15.470;2023-01-31T19:37:43;99117.16;;;1.07;100.00
13420;BME280;6781;58.440;15.470;2023-01-31T20:01:46;99173.53;;;0.90;100.00
13420;BME280;6781;58.440;15.470;2023-01-31T20:13:48;99236.63;;;0.74;100.00
13420;BME280;6781;58.440;15.470;2023-01-31T20:16:49;99254.38;;;0.75;100.00
13420;BME280;6781;58.440;15.470;2023-01-31T20:58:38;99377.84;;;0.73;100.00
13420;BME280;6781;58.440;15.470;2023-01-31T21:34:19;99486.13;;;0.37;100.00
13420;BME280;6781;58.440;15.470;2023-01-31T21:36:51;99499.78;;;0.36;100.00
13420;BME280;6781;58.440;15.470;2023-01-31T21:39:30;99507.25;;;0.39;100.00
13420;BME280;6781;58.440;15.470;2023-01-31T21:41:59;99527.47;;;0.42;100.00
13420;BME280;6781;58.440;15.470;2023-01-31T21:45:16;99532.56;;;0.42;100.00
13420;BME280;6781;58.440;15.470;2023-01-31T21:48:04;99540.78;;;0.47;100.00
13420;BME280;6781;58.440;15.470;2023-01-31T21:50:50;99540.97;;;0.44;100.00
13420;BME280;6781;58.440;15.470;2023-01-31T21:53:17;99554.47;;;0.46;100.00
13420;BME280;6781;58.440;15.470;2023-01-31T21:55:44;99565.97;;;0.53;100.00
13420;BME280;6781;58.440;15.470;2023-01-31T21:58:11;99564.31;;;0.52;100.00
13420;BME280;6781;58.440;15.470;2023-01-31T22:00:38;99568.34;;;0.56;100.00
13420;BME280;6781;58.440;15.470;2023-01-31T22:03:09;99564.00;;;0.58;100.00
13420;BME280;6781;58.440;15.470;2023-01-31T22:05:37;99561.53;;;0.57;100.00
13420;BME280;6781;58.440;15.470;2023-01-31T22:11:05;99555.84;;;0.68;100.00
13420;BME280;6781;58.440;15.470;2023-01-31T22:17:14;99550.50;;;0.56;100.00
13420;BME280;6781;58.440;15.470;2023-01-31T22:19:42;99556.75;;;0.67;100.00
13420;BME280;6781;58.440;15.470;2023-01-31T22:22:47;99555.09;;;0.65;100.00
13420;BME280;6781;58.440;15.470;2023-01-31T22:25:20;99547.03;;;0.73;100.00
13420;BME280;6781;58.440;15.470;2023-01-31T22:28:00;99544.38;;;0.75;100.00
13420;BME280;6781;58.440;15.470;2023-01-31T22:30:40;99537.47;;;0.77;100.00
13420;BME280;6781;58.440;15.470;2023-01-31T22:36:02;99521.34;;;0.76;100.00
13420;BME280;6781;58.440;15.470;2023-01-31T22:38:40;99511.06;;;0.78;100.00
13420;BME280;6781;58.440;15.470;2023-01-31T22:41:34;99512.06;;;0.59;100.00
13420;BME280;6781;58.440;15.470;2023-01-31T22:44:06;99512.63;;;0.64;100.00
13420;BME280;6781;58.440;15.470;2023-01-31T22:46:34;99517.75;;;0.64;100.00
13420;BME280;6781;58.440;15.470;2023-01-31T22:49:02;99513.94;;;0.72;100.00
13420;BME280;6781;58.440;15.470;2023-01-31T22:51:38;99517.88;;;0.77;100.00
13420;BME280;6781;58.440;15.470;2023-01-31T22:54:07;99503.41;;;0.78;100.00
13420;BME280;6781;58.440;15.470;2023-01-31T22:56:38;99495.00;;;0.76;100.00
13420;BME280;6781;58.440;15.470;2023-01-31T22:59:11;99496.47;;;0.80;100.00
13420;BME280;6781;58.440;15.470;2023-01-31T23:01:39;99494.66;;;0.82;100.00
13420;BME280;6781;58.440;15.470;2023-01-31T23:04:08;99482.72;;;0.82;100.00
13420;BME280;6781;58.440;15.470;2023-01-31T23:06:40;99476.72;;;0.83;100.00
13420;BME280;6781;58.440;15.470;2023-01-31T23:09:19;99466.69;;;0.80;100.00
13420;BME280;6781;58.440;15.470;2023-01-31T23:11:54;99463.22;;;0.81;100.00
13420;BME280;6781;58.440;15.470;2023-01-31T23:17:38;99443.63;;;0.82;100.00
13420;BME280;6781;58.440;15.470;2023-01-31T23:20:22;99443.81;;;0.79;100.00
13420;BME280;6781;58.440;15.470;2023-01-31T23:23:04;99442.91;;;0.80;100.00
13420;BME280;6781;58.440;15.470;2023-01-31T23:25:49;99445.44;;;0.80;100.00
13420;BME280;6781;58.440;15.470;2023-01-31T23:28:30;99439.53;;;0.79;100.00
13420;BME280;6781;58.440;15.470;2023-01-31T23:31:00;99433.59;;;0.79;100.00
13420;BME280;6781;58.440;15.470;2023-01-31T23:36:24;99436.59;;;0.71;100.00
13420;BME280;6781;58.440;15.470;2023-01-31T23:39:00;99442.69;;;0.69;100.00
13420;BME280;6781;58.440;15.470;2023-01-31T23:41:45;99437.50;;;0.70;100.00
13420;BME280;6781;58.440;15.470;2023-01-31T23:44:34;99450.69;;;0.62;100.00
13420;BME280;6781;58.440;15.470;2023-01-31T23:47:15;99463.44;;;0.62;100.00
13420;BME280;6781;58.440;15.470;2023-01-31T23:49:57;99469.09;;;0.68;100.00
13420;BME280;6781;58.440;15.470;2023-01-31T23:52:53;99482.78;;;0.67;100.00
13420;BME280;6781;58.440;15.470;2023-01-31T23:55:38;99477.59;;;0.68;100.00
13420;BME280;6781;58.440;15.470;2023-01-31T23:58:26;99488.44;;;0.72;100.00
